createdAt,value
2023-04-12T00:01:51.340Z,57.36
2023-04-12T00:04:22.475Z,57.29
2023-04-12T00:06:57.606Z,57.12
2023-04-12T00:09:30.306Z,56.84
2023-04-12T00:11:59.657Z,56.36
2023-04-12T00:14:28.827Z,56.67
2023-04-12T00:16:58.504Z,56.96
2023-04-12T00:19:30.745Z,57.49
2023-04-12T00:22:00.262Z,57.83
2023-04-12T00:24:35.410Z,58.71
2023-04-12T00:27:05.584Z,58.84
2023-04-12T00:29:40.227Z,59.05
2023-04-12T00:32:09.292Z,59.92
2023-04-12T00:34:43.437Z,59.87
2023-04-12T00:37:12.545Z,60.07
2023-04-12T00:39:44.004Z,61.10
2023-04-12T00:42:13.812Z,60.28
2023-04-12T00:44:43.060Z,60.30
2023-04-12T00:47:17.496Z,60.56
2023-04-12T00:49:51.785Z,61.60
2023-04-12T00:52:27.070Z,61.37
2023-04-12T00:54:58.220Z,61.48
2023-04-12T00:57:27.907Z,61.68
2023-04-12T01:00:04.465Z,61.92
2023-04-12T01:02:34.443Z,62.39
2023-04-12T01:05:05.069Z,63.48
2023-04-12T01:07:44.982Z,65.40
2023-04-12T01:10:34.084Z,65.70
2023-04-12T01:13:12.723Z,65.72
2023-04-12T01:15:51.181Z,64.92
2023-04-12T01:18:29.978Z,64.73
2023-04-12T01:21:05.329Z,65.97
2023-04-12T01:23:53.810Z,66.70
2023-04-12T01:26:36.788Z,66.65
2023-04-12T01:29:16.165Z,67.56
2023-04-12T01:31:52.501Z,67.31
2023-04-12T01:34:23.939Z,67.59
2023-04-12T01:36:54.788Z,67.93
2023-04-12T01:39:29.211Z,67.47
2023-04-12T01:41:58.493Z,67.66
2023-04-12T01:44:29.535Z,68.82
2023-04-12T01:47:04.233Z,68.58
2023-04-12T01:49:41.764Z,70.47
2023-04-12T01:52:16.470Z,70.34
2023-04-12T01:54:51.036Z,71.35
2023-04-12T01:57:22.642Z,71.79
2023-04-12T02:00:02.003Z,72.88
2023-04-12T02:02:32.792Z,72.23
2023-04-12T02:05:03.528Z,72.79
2023-04-12T02:07:33.298Z,72.44
2023-04-12T02:10:08.690Z,72.48
2023-04-12T02:15:15.933Z,73.21
2023-04-12T02:17:45.931Z,74.21
2023-04-12T02:20:22.718Z,72.56
2023-04-12T02:22:53.922Z,72.64
2023-04-12T02:25:23.644Z,72.77
2023-04-12T02:27:52.757Z,73.02
2023-04-12T02:30:24.669Z,73.80
2023-04-12T02:32:55.968Z,73.39
2023-04-12T02:35:34.326Z,73.85
2023-04-12T02:38:09.798Z,73.00
2023-04-12T02:40:42.557Z,72.59
2023-04-12T02:43:16.653Z,72.93
2023-04-12T02:46:02.025Z,73.90
2023-04-12T02:48:34.700Z,73.26
2023-04-12T02:53:50.454Z,73.53
2023-04-12T02:56:29.591Z,74.28
2023-04-12T02:59:06.749Z,74.40
2023-04-12T03:02:07.838Z,75.65
2023-04-12T03:07:23.632Z,75.84
2023-04-12T03:09:55.244Z,75.73
2023-04-12T03:12:27.399Z,75.93
2023-04-12T03:15:18.358Z,75.25
2023-04-12T03:18:01.111Z,75.56
2023-04-12T03:20:34.820Z,75.45
2023-04-12T03:23:07.336Z,75.40
2023-04-12T03:25:40.696Z,74.74
2023-04-12T03:28:33.674Z,74.59
2023-04-12T03:31:05.126Z,74.14
2023-04-12T03:33:50.771Z,73.30
2023-04-12T03:36:26.845Z,73.14
2023-04-12T03:39:11.015Z,72.22
2023-04-12T03:41:41.214Z,72.34
2023-04-12T03:44:10.670Z,71.77
2023-04-12T03:46:40.169Z,71.81
2023-04-12T03:49:14.608Z,71.27
2023-04-12T03:51:52.128Z,70.94
2023-04-12T03:54:26.284Z,70.64
2023-04-12T03:57:01.707Z,70.20
2023-04-12T03:59:43.826Z,69.48
2023-04-12T04:02:13.450Z,69.55
2023-04-12T04:04:55.965Z,68.46
2023-04-12T04:07:31.471Z,67.56
2023-04-12T04:10:01.363Z,66.54
2023-04-12T04:12:35.380Z,66.07
2023-04-12T04:15:05.218Z,65.35
2023-04-12T04:17:36.386Z,64.65
2023-04-12T04:20:12.162Z,64.15
2023-04-12T04:22:48.560Z,64.14
2023-04-12T04:25:19.467Z,63.97
2023-04-12T04:27:53.994Z,63.95
2023-04-12T04:30:26.281Z,63.54
2023-04-12T04:32:55.618Z,62.97
2023-04-12T04:35:28.977Z,62.75
2023-04-12T04:38:05.351Z,62.01
2023-04-12T04:40:34.627Z,61.52
2023-04-12T04:43:13.748Z,60.82
2023-04-12T04:45:46.029Z,60.38
2023-04-12T04:48:16.348Z,58.45
2023-04-12T04:50:47.447Z,57.62
2023-04-12T04:53:22.105Z,57.45
2023-04-12T04:56:00.945Z,57.81
2023-04-12T04:58:35.968Z,58.19
2023-04-12T05:01:05.557Z,57.73
2023-04-12T05:03:37.665Z,56.88
2023-04-12T05:06:10.469Z,56.21
2023-04-12T05:08:45.862Z,56.14
2023-04-12T05:11:19.408Z,55.86
2023-04-12T05:13:49.465Z,55.00
2023-04-12T05:16:18.742Z,54.22
2023-04-12T05:21:26.052Z,53.68
2023-04-12T05:26:30.644Z,53.76
2023-04-12T05:29:01.381Z,53.38
2023-04-12T05:34:19.042Z,52.24
2023-04-12T05:36:59.233Z,51.39
2023-04-12T05:39:32.555Z,51.93
2023-04-12T05:42:01.876Z,51.19
2023-04-12T05:44:31.278Z,51.08
2023-04-12T05:49:41.379Z,50.68
2023-04-12T05:52:14.307Z,49.96
2023-04-12T05:54:44.635Z,50.04
2023-04-12T05:57:23.452Z,48.85
2023-04-12T05:59:57.700Z,49.02
2023-04-12T06:02:27.136Z,48.98
2023-04-12T06:04:58.256Z,48.55
2023-04-12T06:10:27.878Z,48.22
2023-04-12T06:12:57.009Z,47.81
2023-04-12T06:15:38.261Z,46.93
2023-04-12T06:18:09.438Z,46.90
2023-04-12T06:20:41.668Z,46.75
2023-04-12T06:23:21.756Z,46.63
2023-04-12T06:25:57.627Z,46.91
2023-04-12T06:28:26.988Z,46.57
2023-04-12T06:31:01.224Z,46.66
2023-04-12T06:33:36.406Z,46.14
2023-04-12T06:36:16.223Z,44.98
2023-04-12T06:41:25.473Z,43.99
2023-04-12T06:44:07.249Z,43.19
2023-04-12T06:49:11.183Z,43.62
2023-04-12T06:51:40.695Z,43.01
2023-04-12T06:54:12.676Z,41.32
2023-04-12T06:56:41.917Z,41.15
2023-04-12T06:59:10.999Z,41.09
2023-04-12T07:01:45.453Z,40.30
2023-04-12T07:04:16.530Z,40.02
2023-04-12T07:06:45.976Z,39.84
2023-04-12T07:09:17.124Z,39.33
2023-04-12T07:11:47.106Z,39.09
2023-04-12T07:14:17.144Z,39.02
2023-04-12T07:16:53.219Z,38.56
2023-04-12T07:22:13.578Z,37.23
2023-04-12T07:24:45.932Z,36.47
2023-04-12T07:27:15.600Z,37.12
2023-04-12T07:29:54.739Z,36.67
2023-04-12T07:32:33.716Z,36.64
2023-04-12T07:35:18.313Z,35.72
2023-04-12T07:37:48.577Z,35.94
2023-04-12T07:40:20.006Z,35.82
2023-04-12T07:42:49.286Z,36.03
2023-04-12T07:45:18.906Z,35.42
2023-04-12T07:47:48.196Z,34.94
2023-04-12T07:50:17.519Z,34.65
2023-04-12T07:52:46.956Z,35.04
2023-04-12T07:55:16.267Z,35.02
2023-04-12T07:57:48.114Z,33.80
2023-04-12T08:00:18.499Z,33.22
2023-04-12T08:02:47.792Z,33.76
2023-04-12T08:05:17.178Z,34.10
2023-04-12T08:07:51.543Z,33.69
2023-04-12T08:10:23.551Z,34.09
2023-04-12T08:12:54.859Z,33.40
2023-04-12T08:15:24.299Z,33.14
2023-04-12T08:17:53.969Z,33.61
2023-04-12T08:20:24.998Z,33.52
2023-04-12T08:22:54.678Z,33.54
2023-04-12T08:25:24.276Z,33.60
2023-04-12T08:30:40.178Z,31.93
2023-04-12T08:33:09.730Z,32.95
2023-04-12T08:35:39.691Z,31.67
2023-04-12T08:40:49.951Z,31.92
2023-04-12T08:43:22.751Z,31.25
2023-04-12T08:45:52.790Z,31.66
2023-04-12T08:48:25.389Z,31.46
2023-04-12T08:50:55.865Z,31.12
2023-04-12T08:53:25.254Z,31.25
2023-04-12T08:55:59.749Z,31.17
2023-04-12T08:58:33.364Z,30.26
2023-04-12T09:01:10.857Z,29.87
2023-04-12T09:03:41.566Z,29.81
2023-04-12T09:06:16.508Z,30.09
2023-04-12T09:08:56.133Z,29.97
2023-04-12T09:14:05.764Z,30.21
2023-04-12T09:16:46.097Z,29.83
2023-04-12T09:19:16.635Z,29.66
2023-04-12T09:22:02.681Z,29.50
2023-04-12T09:24:47.341Z,30.25
2023-04-12T09:27:17.393Z,30.02
2023-04-12T09:29:51.125Z,29.05
2023-04-12T09:32:30.797Z,28.74
2023-04-12T09:35:05.456Z,28.59
2023-04-12T09:37:35.221Z,28.08
2023-04-12T09:40:07.000Z,28.15
2023-04-12T09:42:37.563Z,27.52
2023-04-12T09:45:27.772Z,28.06
2023-04-12T09:48:07.230Z,27.58
2023-04-12T09:50:36.849Z,27.55
2023-04-12T09:53:17.330Z,27.50
2023-04-12T09:55:48.303Z,26.26
2023-04-12T09:58:22.182Z,25.87
2023-04-12T10:00:55.074Z,25.90
2023-04-12T10:03:24.950Z,26.39
2023-04-12T10:05:54.897Z,25.58
2023-04-12T10:08:30.634Z,25.37
2023-04-12T10:11:00.171Z,25.57
2023-04-12T10:13:36.343Z,25.71
2023-04-12T10:16:26.742Z,25.74
2023-04-12T10:21:36.761Z,25.33
2023-04-12T10:24:09.972Z,26.47
2023-04-12T10:26:43.908Z,26.70
2023-04-12T10:29:35.921Z,26.90
2023-04-12T10:32:20.372Z,26.58
2023-04-12T10:34:55.854Z,26.87
2023-04-12T10:38:02.710Z,27.18
2023-04-12T10:40:33.903Z,27.07
2023-04-12T10:43:29.156Z,27.02
2023-04-12T10:46:03.916Z,27.34
2023-04-12T10:48:35.674Z,27.03
2023-04-12T10:51:19.185Z,27.08
2023-04-12T10:53:49.264Z,27.65
2023-04-12T10:56:39.771Z,27.47
2023-04-12T10:59:11.697Z,27.15
2023-04-12T11:02:04.629Z,26.91
2023-04-12T11:04:44.861Z,27.40
2023-04-12T11:07:17.036Z,27.32
2023-04-12T11:09:59.636Z,27.20
2023-04-12T11:12:33.117Z,27.36
2023-04-12T11:15:05.797Z,27.50
2023-04-12T11:17:59.142Z,27.49
2023-04-12T11:20:29.326Z,27.10
2023-04-12T11:23:01.185Z,27.25
2023-04-12T11:25:31.271Z,26.87
2023-04-12T11:28:05.420Z,27.19
2023-04-12T11:30:51.417Z,26.53
2023-04-12T11:33:35.391Z,26.92
2023-04-12T11:36:13.066Z,26.71
2023-04-12T11:38:45.795Z,26.89
2023-04-12T11:41:18.133Z,26.18
2023-04-12T11:43:47.780Z,26.50
2023-04-12T11:46:18.749Z,26.08
2023-04-12T11:48:48.619Z,26.10
2023-04-12T11:51:21.581Z,25.87
2023-04-12T11:53:58.859Z,26.15
2023-04-12T11:56:31.496Z,26.52
2023-04-12T11:59:06.255Z,26.38
2023-04-12T12:01:38.112Z,26.24
2023-04-12T12:04:08.428Z,27.04
2023-04-12T12:06:38.503Z,26.75
2023-04-12T12:09:10.368Z,26.75
2023-04-12T12:11:39.843Z,27.00
2023-04-12T12:14:09.424Z,26.75
2023-04-12T12:16:46.174Z,26.66
2023-04-12T12:19:15.569Z,26.85
2023-04-12T12:21:44.941Z,26.42
2023-04-12T12:24:16.320Z,26.31
2023-04-12T12:26:46.610Z,26.63
2023-04-12T12:29:27.547Z,26.33
2023-04-12T12:32:04.423Z,25.88
2023-04-12T12:34:36.130Z,26.15
2023-04-12T12:37:05.177Z,25.95
2023-04-12T12:39:41.484Z,26.36
2023-04-12T12:42:14.225Z,25.91
2023-04-12T12:52:17.787Z,26.40
2023-04-12T12:54:47.413Z,26.56
2023-04-12T12:57:21.720Z,26.50
2023-04-12T13:00:05.582Z,26.31
2023-04-12T13:02:35.436Z,26.28
2023-04-12T13:05:08.072Z,26.60
2023-04-12T13:07:46.202Z,26.34
2023-04-12T13:10:15.757Z,26.56
2023-04-12T13:12:50.651Z,26.35
2023-04-12T13:15:23.588Z,26.74
2023-04-12T13:17:54.748Z,26.63
2023-04-12T13:20:25.095Z,26.56
2023-04-12T13:23:02.710Z,26.63
2023-04-12T13:25:37.268Z,26.66
2023-04-12T13:28:06.698Z,26.58
2023-04-12T13:30:36.071Z,25.96
2023-04-12T13:33:05.701Z,25.70
2023-04-12T13:35:39.946Z,25.53
2023-04-12T13:38:22.688Z,25.86
2023-04-12T13:40:51.990Z,25.78
2023-04-12T13:43:21.448Z,25.96
2023-04-12T13:45:50.850Z,26.45
2023-04-12T13:48:25.939Z,26.18
2023-04-12T13:53:42.366Z,26.48
2023-04-12T13:56:11.987Z,26.47
2023-04-12T13:58:41.675Z,26.79
2023-04-12T14:01:13.160Z,26.37
2023-04-12T14:03:53.576Z,26.52
2023-04-12T14:06:22.883Z,26.30
2023-04-12T14:08:57.414Z,26.67
2023-04-12T14:14:07.150Z,26.52
2023-04-12T14:16:36.498Z,26.42
2023-04-12T14:19:05.922Z,26.73
2023-04-12T14:21:35.165Z,26.80
2023-04-12T14:24:06.691Z,26.69
2023-04-12T14:26:36.245Z,26.95
2023-04-12T14:29:17.714Z,26.70
2023-04-12T14:31:47.349Z,27.09
2023-04-12T14:34:22.478Z,26.81
2023-04-12T14:36:52.198Z,27.10
2023-04-12T14:39:26.035Z,27.22
2023-04-12T14:41:56.641Z,26.95
2023-04-12T14:44:26.446Z,27.28
2023-04-12T14:47:03.232Z,27.29
2023-04-12T14:49:39.928Z,27.59
2023-04-12T14:54:47.347Z,27.61
2023-04-12T14:59:58.579Z,27.61
2023-04-12T15:02:36.474Z,27.98
2023-04-12T15:05:09.367Z,27.53
2023-04-12T15:07:44.438Z,27.73
2023-04-12T15:10:30.317Z,27.53
2023-04-12T15:13:00.166Z,27.06
2023-04-12T15:15:30.320Z,27.55
2023-04-12T15:18:11.225Z,27.32
2023-04-12T15:20:42.359Z,28.13
2023-04-12T15:23:12.126Z,27.97
2023-04-12T15:25:45.058Z,27.61
2023-04-12T15:28:14.942Z,27.68
2023-04-12T15:30:50.401Z,28.36
2023-04-12T15:36:22.656Z,28.15
2023-04-12T15:42:26.356Z,28.81
2023-04-12T15:47:53.662Z,29.00
2023-04-12T15:56:34.274Z,29.21
2023-04-12T15:59:21.054Z,29.26
2023-04-12T16:07:57.058Z,30.72
2023-04-12T16:10:44.172Z,30.64
2023-04-12T16:13:18.812Z,30.81
2023-04-12T16:15:58.755Z,30.40
2023-04-12T16:18:30.688Z,30.95
2023-04-12T16:21:00.258Z,31.31
2023-04-12T16:23:37.317Z,31.13
2023-04-12T16:26:07.809Z,31.27
2023-04-12T16:28:46.193Z,31.31
2023-04-12T16:31:25.002Z,31.52
2023-04-12T16:34:08.697Z,31.90
2023-04-12T16:36:47.514Z,31.59
2023-04-12T16:39:29.014Z,31.77
2023-04-12T16:42:07.268Z,31.80
2023-04-12T16:44:37.688Z,32.22
2023-04-12T16:47:24.937Z,31.71
2023-04-12T16:49:59.429Z,32.07
2023-04-12T16:52:28.972Z,32.25
2023-04-12T16:55:10.833Z,32.25
2023-04-12T16:57:41.295Z,32.35
2023-04-12T17:00:32.685Z,32.58
2023-04-12T17:06:08.192Z,32.63
2023-04-12T17:08:53.979Z,32.44
2023-04-12T17:11:34.726Z,32.62
2023-04-12T17:14:25.685Z,32.25
2023-04-12T17:17:06.815Z,32.88
2023-04-12T17:19:46.512Z,33.02
2023-04-12T17:22:40.100Z,33.05
2023-04-12T17:25:11.595Z,32.91
2023-04-12T17:27:44.028Z,33.14
2023-04-12T17:30:29.039Z,33.60
2023-04-12T17:33:12.140Z,33.88
2023-04-12T17:35:48.026Z,33.53
2023-04-12T17:38:23.016Z,33.66
2023-04-12T17:40:58.917Z,34.01
2023-04-12T17:43:43.757Z,33.66
2023-04-12T17:46:21.870Z,34.13
2023-04-12T17:49:03.685Z,34.55
2023-04-12T17:51:46.843Z,34.54
2023-04-12T17:54:34.618Z,34.49
2023-04-12T17:57:23.782Z,34.26
2023-04-12T18:00:09.517Z,34.84
2023-04-12T18:02:55.136Z,34.98
2023-04-12T18:05:29.833Z,35.04
2023-04-12T18:08:01.519Z,34.89
2023-04-12T18:10:35.700Z,34.72
2023-04-12T18:13:05.201Z,35.16
2023-04-12T18:15:34.765Z,34.89
2023-04-12T18:18:07.635Z,35.10
2023-04-12T18:20:37.033Z,35.34
2023-04-12T18:23:21.925Z,35.33
2023-04-12T18:26:04.246Z,35.19
2023-04-12T18:28:40.843Z,34.88
2023-04-12T18:31:11.079Z,34.66
2023-04-12T18:33:42.436Z,35.07
2023-04-12T18:36:12.598Z,35.39
2023-04-12T18:38:48.421Z,35.36
2023-04-12T18:41:17.971Z,35.20
2023-04-12T18:43:47.462Z,35.08
2023-04-12T18:46:18.591Z,35.50
2023-04-12T18:48:52.581Z,35.37
2023-04-12T18:51:23.132Z,35.15
2023-04-12T18:53:52.833Z,35.47
2023-04-12T18:56:33.485Z,36.00
2023-04-12T18:59:04.262Z,35.64
2023-04-12T19:01:36.720Z,36.15
2023-04-12T19:04:08.901Z,36.28
2023-04-12T19:06:38.663Z,36.32
2023-04-12T19:09:09.255Z,36.25
2023-04-12T19:11:38.743Z,36.63
2023-04-12T19:14:09.678Z,36.32
2023-04-12T19:16:39.513Z,36.30
2023-04-12T19:19:11.226Z,36.87
2023-04-12T19:21:40.738Z,36.89
2023-04-12T19:24:10.166Z,36.60
2023-04-12T19:26:57.870Z,36.63
2023-04-12T19:29:34.736Z,36.61
2023-04-12T19:32:17.128Z,36.21
2023-04-12T19:34:50.733Z,36.21
2023-04-12T19:37:26.256Z,36.43
2023-04-12T19:39:55.621Z,36.27
2023-04-12T19:42:24.994Z,36.47
2023-04-12T19:44:54.395Z,35.88
2023-04-12T19:47:24.089Z,35.61
2023-04-12T19:50:19.460Z,35.91
2023-04-12T19:52:52.124Z,36.04
2023-04-12T19:55:23.248Z,36.07
2023-04-12T19:57:52.874Z,36.08
2023-04-12T20:00:34.271Z,36.30
2023-04-12T20:03:03.787Z,36.34
2023-04-12T20:05:35.295Z,36.40
2023-04-12T20:08:05.074Z,36.41
2023-04-12T20:10:34.350Z,36.61
2023-04-12T20:13:06.643Z,36.61
2023-04-12T20:15:36.264Z,36.59
2023-04-12T20:18:07.230Z,36.59
2023-04-12T20:20:38.646Z,36.46
2023-04-12T20:23:08.762Z,36.20
2023-04-12T20:25:41.487Z,36.42
2023-04-12T20:28:11.898Z,35.82
2023-04-12T20:30:42.245Z,35.97
2023-04-12T20:33:17.166Z,35.87
2023-04-12T20:35:48.668Z,36.16
2023-04-12T20:38:23.159Z,36.39
2023-04-12T20:40:52.320Z,36.66
2023-04-12T20:43:21.611Z,37.00
2023-04-12T20:48:31.631Z,37.09
2023-04-12T20:51:03.221Z,37.33
2023-04-12T20:53:32.534Z,36.95
2023-04-12T20:56:02.102Z,36.51
2023-04-12T20:58:34.501Z,37.03
2023-04-12T21:01:05.657Z,36.78
2023-04-12T21:03:35.711Z,36.99
2023-04-12T21:06:08.882Z,37.29
2023-04-12T21:08:38.446Z,37.75
2023-04-12T21:11:08.792Z,38.23
2023-04-12T21:13:38.396Z,38.06
2023-04-12T21:16:09.439Z,38.64
2023-04-12T21:18:41.220Z,38.64
2023-04-12T21:21:18.734Z,39.04
2023-04-12T21:23:48.181Z,38.85
2023-04-12T21:26:17.692Z,39.17
2023-04-12T21:28:46.974Z,39.25
2023-04-12T21:31:16.373Z,39.46
2023-04-12T21:33:45.639Z,39.36
2023-04-12T21:36:17.622Z,39.32
2023-04-12T21:38:47.731Z,39.19
2023-04-12T21:41:17.380Z,39.13
2023-04-12T21:43:52.547Z,39.54
2023-04-12T21:46:26.714Z,39.51
2023-04-12T21:48:57.050Z,39.37
2023-04-12T21:51:28.614Z,39.85
2023-04-12T21:53:57.898Z,39.67
2023-04-12T21:56:29.442Z,40.28
2023-04-12T21:59:05.701Z,40.36
2023-04-12T22:01:36.975Z,40.62
2023-04-12T22:04:06.380Z,40.31
2023-04-12T22:06:37.826Z,40.77
2023-04-12T22:09:07.095Z,40.93
2023-04-12T22:11:41.307Z,40.78
2023-04-12T22:14:11.009Z,40.58
2023-04-12T22:16:40.384Z,41.21
2023-04-12T22:19:09.737Z,40.93
2023-04-12T22:21:41.949Z,41.26
2023-04-12T22:24:26.952Z,41.51
2023-04-12T22:27:02.788Z,41.55
2023-04-12T22:29:46.981Z,42.07
2023-04-12T22:32:41.251Z,42.41
2023-04-12T22:35:12.068Z,42.73
2023-04-12T22:37:49.908Z,42.34
2023-04-12T22:40:19.427Z,42.35
2023-04-12T22:43:04.035Z,43.36
2023-04-12T22:45:33.736Z,43.46
2023-04-12T22:48:02.912Z,43.79
2023-04-12T22:50:35.098Z,43.70
2023-04-12T22:55:48.664Z,44.46
2023-04-12T22:58:17.921Z,44.54
2023-04-12T23:00:50.298Z,44.99
2023-04-12T23:03:24.968Z,44.91
2023-04-12T23:05:54.916Z,44.89
2023-04-12T23:08:33.893Z,44.97
2023-04-12T23:11:04.439Z,45.30
2023-04-12T23:13:35.623Z,44.79
2023-04-12T23:16:29.187Z,45.42
2023-04-12T23:18:58.960Z,45.74
2023-04-12T23:21:28.272Z,45.87
2023-04-12T23:24:20.705Z,46.18
2023-04-12T23:26:49.995Z,46.64
2023-04-12T23:29:19.344Z,46.60
2023-04-12T23:31:49.038Z,46.88
2023-04-12T23:34:23.732Z,47.85
2023-04-12T23:36:54.798Z,47.32
2023-04-12T23:39:39.052Z,47.92
2023-04-12T23:42:08.545Z,47.88
2023-04-12T23:44:50.719Z,48.33
2023-04-12T23:47:21.500Z,48.31
2023-04-12T23:50:11.039Z,48.46
2023-04-12T23:52:40.779Z,48.88
2023-04-12T23:55:12.428Z,48.69
2023-04-12T23:57:46.858Z,48.89
